EW2469 Weather Reports


Display with metric or nautical units.
time (UTC)temp
F
wind
direction
speed
MPH
gust
MPH
rain 1hr
in
rain 24hr
in
rain mn
in
humidity
%
barometer
mb
20200406060519 50 170 0.0 0.0 0.01 0.11 0.11 1 1014.0
20200406060018 50 120 0.0 0.0 0.01 0.11 0.11 1 1014.1
20200406055519 50 120 0.0 0.0 0.01 0.10 0.10 1 1014.0
20200406055021 50 120 0.0 0.0 0.03 0.10 0.10 1 1014.1
20200406054523 50 120 0.0 0.0 0.05 0.10 0.10 1 1014.0
20200406054025 50 120 0.0 0.0 0.06 0.10 0.10 1 1014.0
20200406053526 50 120 0.0 0.0 0.08 0.10 0.10 1 1014.1
20200406053027 50 120 0.0 0.0 0.10 0.10 0.10 1 1014.0
20200406052528 50 120 0.0 0.0 0.10 0.10 0.10 1 1014.1
20200406052029 51 120 0.0 0.0 0.10 0.10 0.10 1 1014.0
20200406051511 51 121 0.0 0.0 0.10 0.10 0.10 1 1014.1
20200406051013 51 121 0.0 0.0 0.10 0.10 0.10 1 1014.1
20200406050514 51 121 0.0 0.0 0.10 0.10 0.10 1 1014.1
20200406050036 52 120 0.0 0.0 0.10 0.10 0.10 1 1014.2
20200406045523 52 121 0.0 0.0 0.09 0.09 0.09 1 1014.3
20200406045024 53 122 0.0 2.0 0.07 0.07 0.07 1 1014.3
20200406044513 53 151 0.0 2.0 0.05 0.05 0.05 15 1014.3
20200406044015 54 243 0.0 3.0 0.03 0.03 0.03 31 1014.3
20200406043517 55 292 1.0 6.0 0.01 0.01 0.01 46 1014.0
20200406043019 56 44 1.0 6.0 0.00 0.00 0.00 55 1014.0
20200406042520 56 27 1.0 8.0 0.00 0.00 0.00 56 1013.9
20200406042022 56 109 1.0 8.0 0.00 0.00 0.00 56 1013.8
20200406041523 56 75 0.0 2.0 0.00 0.00 0.00 56 1013.7
20200406041024 56 274 0.0 4.0 0.00 0.00 0.00 56 1013.6
20200406040526 56 81 1.0 6.0 0.00 0.00 0.00 57 1013.7
20200406040025 56 40 2.0 9.0 0.00 0.00 0.00 57 1013.7
20200406035521 56 117 0.0 9.0 0.00 0.00 0.00 57 1013.7
20200406035023 56 354 2.0 11.0 0.00 0.00 0.00 57 1013.7
20200406034523 56 103 3.0 11.0 0.00 0.00 0.00 57 1013.7
20200406034025 56 162 0.0 7.0 0.00 0.00 0.00 55 1013.7
20200406033526 55 288 1.0 5.0 0.00 0.00 0.00 53 1013.7
20200406033028 54 203 0.0 2.0 0.00 0.00 0.00 45 1013.6
20200406032530 53 117 0.0 1.0 0.00 0.00 0.00 24 1013.5
20200406032012 52 155 0.0 1.0 0.00 0.00 0.00 20 1013.3
20200406031514 51 257 0.0 0.0 0.00 0.00 0.00 7 1013.3
20200406031016 51 257 0.0 0.0 0.00 0.00 0.00 11 1013.0
20200406030518 51 257 0.0 0.0 0.00 0.00 0.00 9 1012.9
20200406030016 51 257 0.0 0.0 0.00 0.00 0.00 11 1013.0
20200406025517 51 257 0.0 0.0 0.00 0.00 0.00 10 1013.1
20200406025019 51 257 0.0 0.0 0.00 0.00 0.00 7 1013.1
20200406024521 51 257 0.0 0.0 0.00 0.00 0.00 5 1013.1
20200406024023 51 257 0.0 0.0 0.00 0.00 0.00 9 1013.2
20200406023525 50 257 0.0 0.0 0.00 0.00 0.00 9 1013.1
20200406023027 50 257 0.0 0.0 0.00 0.00 0.00 6 1013.2
20200406022529 50 257 0.0 0.0 0.00 0.00 0.00 5 1013.2
20200406022031 50 257 0.0 0.0 0.00 0.00 0.00 6 1013.3
20200406021525 50 257 0.0 0.0 0.00 0.00 0.00 10 1013.3
20200406021025 50 257 0.0 0.0 0.00 0.00 0.00 12 1013.3
20200406020527 50 257 0.0 0.0 0.00 0.00 0.00 14 1013.3
20200406020026 50 257 0.0 0.0 0.00 0.00 0.00 16 1013.3
20200406015528 50 257 0.0 0.0 0.00 0.00 0.00 17 1013.3
20200406015029 51 257 0.0 0.0 0.00 0.00 0.00 19 1013.2
20200406014530 51 257 0.0 0.0 0.00 0.00 0.00 20 1013.2
20200406014012 51 257 0.0 0.0 0.00 0.00 0.00 21 1013.2
20200406013513 51 257 0.0 0.0 0.00 0.00 0.00 22 1013.3
20200406013015 51 257 0.0 0.0 0.00 0.00 0.00 23 1013.3
20200406012517 51 257 0.0 0.0 0.00 0.00 0.00 24 1013.3
20200406012019 51 257 0.0 0.0 0.00 0.00 0.00 25 1013.2
20200406011521 52 257 0.0 0.0 0.00 0.00 0.00 27 1013.2
20200406011023 52 257 0.0 0.0 0.00 0.00 0.00 29 1013.2
20200406010525 52 257 0.0 0.0 0.00 0.00 0.00 30 1013.2
20200406010024 52 239 0.0 0.0 0.00 0.00 0.00 33 1013.1
20200406005526 53 238 0.0 0.0 0.00 0.00 0.00 34 1013.1
20200406005027 53 238 0.0 0.0 0.00 0.00 0.00 35 1013.1
20200406004529 53 238 0.0 0.0 0.00 0.00 0.00 38 1013.1
20200406004031 54 238 0.0 0.0 0.00 0.00 0.00 41 1012.9
20200406003512 54 238 0.0 0.0 0.00 0.00 0.00 43 1012.9
20200406003034 54 238 0.0 0.0 0.00 0.00 0.00 45 1012.9
20200406002519 55 238 0.0 0.0 0.00 0.00 0.00 46 1012.8
20200406002021 55 238 0.0 0.0 0.00 0.00 0.00 48 1012.8
20200406001522 55 238 0.0 0.0 0.00 0.00 0.00 49 1012.8
20200406001021 56 238 0.0 0.0 0.00 0.00 0.00 51 1012.8
20200406000523 56 238 0.0 0.0 0.00 0.00 0.00 53 1012.8
20200406000022 57 238 0.0 0.0 0.00 0.00 0.00 55 1012.8
20200405235523 58 238 0.0 0.0 0.00 0.00 0.00 56 1012.7
20200405235016 58 238 0.0 0.0 0.00 0.00 0.00 56 1012.7
20200405234518 59 238 0.0 0.0 0.00 0.00 0.00 57 1012.6
20200405234020 59 238 0.0 0.0 0.00 0.00 0.00 58 1012.6
20200405233522 60 238 0.0 0.0 0.00 0.00 0.00 57 1012.5
20200405233024 60 238 0.0 0.0 0.00 0.00 0.00 58 1012.5
20200405232526 60 238 0.0 0.0 0.00 0.00 0.00 58 1012.5
20200405232028 61 238 0.0 0.0 0.00 0.00 0.00 58 1012.5
20200405231529 61 238 0.0 0.0 0.00 0.00 0.00 58 1012.5
20200405231023 61 238 0.0 0.0 0.00 0.00 0.00 58 1012.5
20200405230523 62 238 0.0 0.0 0.00 0.00 0.00 58 1012.5
20200405230022 62 238 0.0 0.0 0.00 0.00 0.00 57 1012.5
20200405225523 62 238 0.0 0.0 0.00 0.00 0.00 57 1012.6
20200405225026 62 238 0.0 0.0 0.00 0.00 0.00 57 1012.6
20200405224526 63 238 0.0 0.0 0.00 0.00 0.00 56 1012.6
20200405224026 63 238 0.0 0.0 0.00 0.00 0.00 56 1012.6
20200405223528 63 229 0.0 0.0 0.00 0.00 0.00 55 1012.5
20200405223029 63 229 0.0 0.0 0.00 0.00 0.00 54 1012.5
20200405222530 64 225 0.0 0.0 0.00 0.00 0.00 54 1012.5
20200405222012 64 227 0.0 0.0 0.00 0.00 0.00 53 1012.5
20200405221513 64 226 0.0 0.0 0.00 0.00 0.00 53 1012.5
20200405221014 64 226 0.0 0.0 0.00 0.00 0.00 53 1012.6
20200405220516 64 143 0.0 0.0 0.00 0.00 0.00 54 1012.6
20200405220015 64 143 0.0 0.0 0.00 0.00 0.00 53 1012.6
20200405215516 64 143 0.0 0.0 0.00 0.00 0.00 52 1012.5
20200405215017 64 143 0.0 0.0 0.00 0.00 0.00 53 1012.5
20200405214519 64 186 0.0 1.0 0.00 0.00 0.00 52 1012.5
20200405214020 64 111 0.0 1.0 0.00 0.00 0.00 52 1012.5
20200405213521 64 235 0.0 0.0 0.00 0.00 0.00 53 1012.5
20200405213022 64 222 0.0 1.0 0.00 0.00 0.00 52 1012.6
20200405212523 64 221 0.0 1.0 0.00 0.00 0.00 52 1012.5
20200405212025 64 269 0.0 1.0 0.00 0.00 0.00 52 1012.5
20200405211526 65 248 0.0 3.0 0.00 0.00 0.00 52 1012.5
20200405211028 65 233 0.0 3.0 0.00 0.00 0.00 51 1012.5
20200405210528 65 253 0.0 1.0 0.00 0.00 0.00 51 1012.6
20200405210027 65 240 0.0 1.0 0.00 0.00 0.00 51 1012.5
20200405205528 65 227 0.0 2.0 0.00 0.00 0.00 51 1012.5
20200405205029 65 228 0.0 4.0 0.00 0.00 0.00 51 1012.5
20200405204511 65 266 1.0 4.0 0.00 0.00 0.00 50 1012.5
20200405204013 65 290 1.0 2.0 0.00 0.00 0.00 50 1012.6
20200405203512 65 218 0.0 3.0 0.00 0.00 0.00 51 1012.5
20200405203014 65 316 1.0 3.0 0.00 0.00 0.00 51 1012.6
20200405202515 65 269 1.0 3.0 0.00 0.00 0.00 50 1012.6
20200405202017 65 268 0.0 1.0 0.00 0.00 0.00 51 1012.6
20200405201517 65 326 0.0 3.0 0.00 0.00 0.00 51 1012.7
20200405201020 65 279 0.0 3.0 0.00 0.00 0.00 52 1012.7
20200405200521 65 91 1.0 3.0 0.00 0.00 0.00 52 1012.6
20200405200019 65 289 0.0 2.0 0.00 0.00 0.00 52 1012.7
20200405195520 65 247 1.0 4.0 0.00 0.00 0.00 52 1012.8
20200405195021 65 233 1.0 4.0 0.00 0.00 0.00 52 1012.8
20200405194524 65 274 1.0 6.0 0.00 0.00 0.00 52 1012.8
20200405194023 64 263 0.0 3.0 0.00 0.00 0.00 53 1012.9
20200405193523 64 252 1.0 3.0 0.00 0.00 0.00 53 1013.0
20200405193024 64 231 1.0 5.0 0.00 0.00 0.00 53 1013.1
20200405192525 64 248 2.0 6.0 0.00 0.00 0.00 53 1013.1
20200405192027 64 268 1.0 6.0 0.00 0.00 0.00 52 1013.1
20200405191528 64 284 1.0 3.0 0.00 0.00 0.00 51 1013.0
20200405191020 64 303 1.0 4.0 0.00 0.00 0.00 51 1013.0
20200405190522 64 300 2.0 5.0 0.00 0.00 0.00 51 1013.1
20200405190021 65 273 2.0 6.0 0.00 0.00 0.00 49 1013.2
20200405185523 65 262 1.0 4.0 0.00 0.00 0.00 49 1013.1
20200405185025 65 248 2.0 6.0 0.00 0.00 0.00 48 1013.2
20200405184527 65 238 3.0 6.0 0.00 0.00 0.00 48 1013.2
20200405184028 65 293 1.0 6.0 0.00 0.00 0.00 51 1013.2
20200405183529 65 217 2.0 6.0 0.00 0.00 0.00 50 1013.2
20200405183011 65 250 0.0 6.0 0.00 0.00 0.00 50 1013.2
20200405182513 65 278 4.0 6.0 0.00 0.00 0.00 49 1013.3
20200405182014 65 243 1.0 5.0 0.00 0.00 0.00 50 1013.3
20200405181516 64 255 0.0 5.0 0.00 0.00 0.00 52 1013.3
20200405181017 64 212 0.0 4.0 0.00 0.00 0.00 52 1013.4
20200405180518 64 243 1.0 4.0 0.00 0.00 0.00 52 1013.5
20200405180016 64 284 1.0 6.0 0.00 0.00 0.00 52 1013.5
20200405175517 64 331 1.0 5.0 0.00 0.00 0.00 52 1013.5
20200405175014 64 246 1.0 4.0 0.00 0.00 0.00 52 1013.7
20200405174515 64 259 1.0 6.0 0.00 0.00 0.00 52 1013.7
20200405174016 64 276 1.0 8.0 0.00 0.00 0.00 52 1013.7
20200405173517 64 288 4.0 8.0 0.00 0.00 0.00 52 1013.7
20200405173019 64 276 3.0 8.0 0.00 0.00 0.00 52 1013.7
20200405172519 64 275 2.0 5.0 0.00 0.00 0.00 52 1013.7
20200405172020 65 274 1.0 5.0 0.00 0.00 0.00 51 1013.8
20200405171522 65 276 1.0 3.0 0.00 0.00 0.00 52 1013.8
20200405171024 65 246 0.0 3.0 0.00 0.00 0.00 53 1013.9
20200405170526 65 279 0.0 3.0 0.00 0.00 0.00 52 1013.9
20200405170026 65 273 1.0 4.0 0.00 0.00 0.00 52 1013.9
20200405165528 65 129 2.0 4.0 0.00 0.00 0.00 52 1013.9
20200405165029 65 237 1.0 3.0 0.00 0.00 0.00 53 1014.0
20200405164511 65 269 0.0 3.0 0.00 0.00 0.00 53 1014.0
20200405164013 65 252 0.0 1.0 0.00 0.00 0.00 52 1014.1
20200405163514 65 285 0.0 5.0 0.00 0.00 0.00 54 1014.0
20200405163016 65 254 2.0 5.0 0.00 0.00 0.00 52 1014.0
20200405162518 65 231 1.0 6.0 0.00 0.00 0.00 51 1014.1
20200405162020 66 133 2.0 8.0 0.00 0.00 0.00 51 1014.2
20200405161521 66 233 3.0 6.0 0.00 0.00 0.00 51 1014.2
20200405161018 66 11 0.0 5.0 0.00 0.00 0.00 54 1014.2
20200405160523 65 79 1.0 5.0 0.00 0.00 0.00 53 1014.3
20200405160021 65 143 3.0 5.0 0.00 0.00 0.00 53 1014.4
20200405155520 64 255 0.0 4.0 0.00 0.00 0.00 56 1014.5
20200405155026 63 95 0.0 4.0 0.00 0.00 0.00 57 1014.6
20200405154513 62 117 0.0 4.0 0.00 0.00 0.00 57 1014.7
20200405154026 62 229 0.0 3.0 0.00 0.00 0.00 58 1014.8
20200405153512 62 248 0.0 1.0 0.00 0.00 0.00 58 1014.9
20200405153019 61 217 0.0 4.0 0.00 0.00 0.00 58 1014.9
20200405152525 61 232 2.0 5.0 0.00 0.00 0.00 58 1015.1
20200405152011 61 281 2.0 5.0 0.00 0.00 0.00 59 1015.0
20200405151520 61 290 0.0 3.0 0.00 0.00 0.00 58 1015.1
20200405151025 60 298 0.0 3.0 0.00 0.00 0.00 58 1015.2
20200405150512 60 250 1.0 3.0 0.00 0.00 0.00 59 1015.2
20200405150024 60 279 0.0 2.0 0.00 0.00 0.00 59 1015.2
20200405145511 59 196 0.0 3.0 0.00 0.00 0.00 57 1015.3
20200405145018 59 220 0.0 2.0 0.00 0.00 0.00 55 1015.3
20200405144523 58 208 0.0 2.0 0.00 0.00 0.00 52 1015.4
20200405144016 57 250 0.0 3.0 0.00 0.00 0.00 48 1015.3
20200405143519 56 256 1.0 3.0 0.00 0.00 0.00 46 1015.4
20200405143025 56 124 0.0 1.0 0.00 0.00 0.00 39 1015.5
20200405142511 55 228 0.0 1.0 0.00 0.00 0.00 36 1015.5
20200405142024 55 139 0.0 2.0 0.00 0.00 0.00 33 1015.6
20200405141515 54 227 0.0 2.0 0.00 0.00 0.00 33 1015.5
20200405141020 54 232 0.0 2.0 0.00 0.00 0.00 29 1015.6
20200405140527 54 217 0.0 2.0 0.00 0.00 0.00 25 1015.6
20200405140018 54 231 0.0 1.0 0.00 0.00 0.00 23 1015.6
20200405135525 53 259 0.0 2.0 0.00 0.00 0.00 13 1015.6
20200405135011 53 283 0.0 2.0 0.00 0.00 0.00 19 1015.6
20200405134518 52 273 0.0 1.0 0.00 0.00 0.00 14 1015.5
20200405134031 52 273 0.0 1.0 0.00 0.00 0.00 13 1015.5
20200405133516 52 273 0.0 1.0 0.00 0.00 0.00 10 1015.5
20200405133020 52 266 0.0 0.0 0.00 0.00 0.00 9 1015.5
20200405132525 52 267 0.0 0.0 0.00 0.00 0.00 4 1015.5
20200405132012 51 267 0.0 0.0 0.00 0.00 0.00 2 1015.6
20200405131524 51 266 0.0 0.0 0.00 0.00 0.00 1 1015.6
20200405131010 51 267 0.0 0.0 0.00 0.00 0.00 1 1015.6
20200405130516 51 266 0.0 0.0 0.00 0.00 0.00 1 1015.5
20200405130026 50 266 0.0 0.0 0.00 0.00 0.00 1 1015.6
20200405125512 50 267 0.0 0.0 0.00 0.00 0.00 1 1015.6
20200405125017 50 266 0.0 0.0 0.00 0.00 0.00 1 1015.5
20200405124530 50 267 0.0 0.0 0.00 0.00 0.00 1 1015.5
20200405124015 50 267 0.0 0.0 0.00 0.00 0.00 1 1015.5
20200405123518 49 267 0.0 0.0 0.00 0.00 0.00 1 1015.5
20200405123017 49 267 0.0 0.0 0.00 0.00 0.00 1 1015.5
20200405122529 49 267 0.0 0.0 0.00 0.00 0.00 1 1015.4
20200405122015 49 267 0.0 0.0 0.00 0.00 0.00 1 1015.4
20200405121523 49 267 0.0 0.0 0.00 0.00 0.00 1 1015.4
20200405121027 49 266 0.0 0.0 0.00 0.00 0.00 1 1015.4
20200405120512 49 267 0.0 0.0 0.00 0.00 0.00 1 1015.4
20200405120026 48 266 0.0 0.0 0.00 0.00 0.00 1 1015.3
20200405115511 48 267 0.0 0.0 0.00 0.00 0.00 1 1015.3
20200405115017 48 267 0.0 0.0 0.00 0.00 0.00 1 1015.3
20200405114529 48 267 0.0 0.0 0.00 0.00 0.00 1 1015.3
20200405114017 48 267 0.0 0.0 0.00 0.00 0.00 1 1015.3
20200405113523 47 267 0.0 0.0 0.00 0.00 0.00 1 1015.2
20200405113010 47 267 0.0 0.0 0.00 0.00 0.00 1 1015.1
20200405112517 47 267 0.0 0.0 0.00 0.00 0.00 1 1015.0
20200405112016 47 266 0.0 0.0 0.00 0.00 0.00 1 1014.9
20200405111522 47 267 0.0 0.0 0.00 0.00 0.00 1 1014.9
20200405111028 47 266 0.0 0.0 0.00 0.00 0.00 1 1014.9
20200405110515 47 266 0.0 0.0 0.00 0.00 0.00 1 1014.8
20200405110027 47 266 0.0 0.0 0.00 0.00 0.00 1 1014.8
20200405105514 46 266 0.0 0.0 0.00 0.00 0.00 1 1014.7
20200405105021 46 266 0.0 0.0 0.00 0.00 0.00 1 1014.7
20200405104534 46 266 0.0 0.0 0.00 0.00 0.00 1 1014.7
20200405104021 46 266 0.0 0.0 0.00 0.00 0.00 1 1014.6
20200405103528 46 266 0.0 0.0 0.00 0.00 0.00 1 1014.6
20200405103013 46 266 0.0 0.0 0.00 0.00 0.00 1 1014.5
20200405102511 46 266 0.0 0.0 0.00 0.00 0.00 1 1014.6
20200405102024 46 266 0.0 0.0 0.00 0.00 0.00 1 1014.6
20200405101509 46 266 0.0 0.0 0.00 0.00 0.00 1 1014.6
20200405101015 46 266 0.0 0.0 0.00 0.00 0.00 1 1014.6
20200405100522 46 266 0.0 0.0 0.00 0.00 0.00 1 1014.5
20200405100014 46 266 0.0 0.0 0.00 0.00 0.00 1 1014.5
20200405095521 47 266 0.0 0.0 0.00 0.00 0.00 1 1014.5
20200405095008 46 266 0.0 0.0 0.00 0.00 0.00 1 1014.4
20200405094516 46 266 0.0 0.0 0.00 0.00 0.00 1 1014.4
20200405094028 46 266 0.0 0.0 0.00 0.00 0.00 1 1014.4
20200405093515 46 266 0.0 0.0 0.00 0.00 0.00 1 1014.3
20200405093020 46 266 0.0 0.0 0.00 0.00 0.00 1 1014.4
20200405092527 46 266 0.0 0.0 0.00 0.00 0.00 1 1014.4
20200405092014 46 266 0.0 0.0 0.00 0.00 0.00 1 1014.4
20200405091534 46 266 0.0 0.0 0.00 0.00 0.00 1 1014.4
20200405091013 46 266 0.0 0.0 0.00 0.00 0.00 1 1014.4
20200405090521 46 267 0.0 0.0 0.00 0.00 0.00 1 1014.3
20200405090033 46 266 0.0 0.0 0.00 0.00 0.00 1 1014.4
20200405085519 46 266 0.0 0.0 0.00 0.00 0.00 1 1014.4
20200405085024 47 267 0.0 0.0 0.00 0.00 0.00 1 1014.4
20200405084520 47 266 0.0 0.0 0.00 0.00 0.00 1 1014.5
20200405084033 47 266 0.0 0.0 0.00 0.00 0.00 1 1014.4
20200405083520 47 266 0.0 0.0 0.00 0.00 0.00 1 1014.5
20200405083011 47 266 0.0 0.0 0.00 0.00 0.00 1 1014.4
20200405082517 47 266 0.0 0.0 0.00 0.00 0.00 1 1014.4
20200405082030 47 266 0.0 0.0 0.00 0.00 0.00 1 1014.4
20200405081517 47 266 0.0 0.0 0.00 0.00 0.00 1 1014.4
20200405081023 47 266 0.0 0.0 0.00 0.00 0.00 1 1014.4
20200405080510 47 266 0.0 0.0 0.00 0.00 0.00 1 1014.4
20200405080023 47 266 0.0 0.0 0.00 0.00 0.00 1 1014.5
20200405075527 47 266 0.0 0.0 0.00 0.00 0.00 1 1014.5
20200405075012 47 266 0.0 0.0 0.00 0.00 0.00 1 1014.5
20200405074516 47 266 0.0 0.0 0.00 0.00 0.00 1 1014.5
20200405074029 47 266 0.0 0.0 0.00 0.00 0.00 1 1014.5
20200405073516 47 266 0.0 0.0 0.00 0.00 0.00 1 1014.5
20200405073021 47 266 0.0 0.0 0.00 0.00 0.00 1 1014.5
20200405072528 47 266 0.0 0.0 0.00 0.00 0.00 1 1014.6
20200405072015 47 266 0.0 0.0 0.00 0.00 0.00 1 1014.5
20200405071528 47 266 0.0 0.0 0.00 0.00 0.00 1 1014.5
20200405071015 47 266 0.0 0.0 0.00 0.00 0.00 1 1014.6
20200405070522 47 266 0.0 0.0 0.00 0.00 0.00 1 1014.5
20200405070009 47 266 0.0 0.0 0.00 0.00 0.00 1 1014.6
20200405065522 47 266 0.0 0.0 0.00 0.00 0.00 1 1014.6
20200405065009 46 266 0.0 0.0 0.00 0.00 0.00 1 1014.6
20200405064514 46 266 0.0 0.0 0.00 0.00 0.00 1 1014.6
20200405064020 46 266 0.0 0.0 0.00 0.00 0.00 1 1014.6
20200405063533 46 266 0.0 0.0 0.00 0.00 0.00 1 1014.6
20200405063020 46 266 0.0 0.0 0.00 0.00 0.00 1 1014.6
20200405062516 46 266 0.0 0.0 0.00 0.00 0.00 1 1014.6
20200405062029 46 266 0.0 0.0 0.00 0.00 0.00 1 1014.6
20200405061516 46 266 0.0 0.0 0.00 0.00 0.00 1 1014.6
20200405061023 46 266 0.0 0.0 0.00 0.00 0.00 1 1014.6